createdAt,value
2023-06-27T00:01:52.560Z,47.63
2023-06-27T00:04:20.311Z,47.91
2023-06-27T00:06:47.819Z,48.08
2023-06-27T00:09:16.238Z,48.24
2023-06-27T00:11:43.423Z,48.46
2023-06-27T00:14:10.852Z,48.12
2023-06-27T00:16:39.240Z,48.35
2023-06-27T00:19:06.523Z,48.68
2023-06-27T00:21:34.722Z,48.41
2023-06-27T00:24:02.515Z,48.46
2023-06-27T00:26:29.796Z,48.55
2023-06-27T00:28:57.174Z,48.67
2023-06-27T00:31:24.547Z,48.95
2023-06-27T00:33:51.769Z,48.87
2023-06-27T00:36:18.767Z,49.03
2023-06-27T00:38:45.909Z,48.71
2023-06-27T00:41:12.857Z,48.99
2023-06-27T00:43:39.722Z,49.28
2023-06-27T00:46:08.515Z,48.79
2023-06-27T00:48:35.699Z,49.16
2023-06-27T00:51:04.628Z,49.37
2023-06-27T00:53:31.779Z,49.07
2023-06-27T00:55:59.075Z,49.10
2023-06-27T00:58:26.634Z,49.03
2023-06-27T01:00:53.538Z,49.40
2023-06-27T01:03:22.114Z,49.33
2023-06-27T01:05:49.398Z,49.40
2023-06-27T01:08:35.711Z,49.19
2023-06-27T01:11:29.636Z,49.48
2023-06-27T01:13:58.159Z,49.30
2023-06-27T01:16:30.087Z,49.19
2023-06-27T01:18:58.506Z,49.10
2023-06-27T01:21:29.849Z,49.38
2023-06-27T01:24:03.706Z,49.39
2023-06-27T01:26:31.357Z,49.43
2023-06-27T01:28:58.240Z,49.47
2023-06-27T01:31:40.702Z,49.50
2023-06-27T01:34:24.119Z,49.48
2023-06-27T01:37:22.113Z,49.66
2023-06-27T01:39:58.196Z,49.62
2023-06-27T01:42:30.088Z,49.62
2023-06-27T01:44:58.334Z,49.68
2023-06-27T01:47:26.174Z,49.68
2023-06-27T01:49:53.061Z,49.86
2023-06-27T01:52:20.376Z,49.85
2023-06-27T01:54:47.315Z,49.96
2023-06-27T01:57:14.162Z,50.12
2023-06-27T01:59:40.971Z,50.17
2023-06-27T02:02:08.002Z,50.08
2023-06-27T02:04:35.357Z,50.19
2023-06-27T02:07:02.223Z,49.79
2023-06-27T02:09:29.056Z,50.05
2023-06-27T02:11:55.896Z,49.84
2023-06-27T02:14:22.677Z,50.09
2023-06-27T02:16:49.466Z,50.15
2023-06-27T02:19:16.280Z,50.26
2023-06-27T02:21:44.331Z,50.39
2023-06-27T02:24:11.124Z,50.51
2023-06-27T02:26:37.979Z,50.48
2023-06-27T02:29:04.799Z,50.36
2023-06-27T02:31:31.645Z,50.30
2023-06-27T02:33:58.503Z,50.26
2023-06-27T02:36:28.371Z,50.26
2023-06-27T02:38:56.113Z,50.30
2023-06-27T02:41:25.954Z,50.29
2023-06-27T02:43:53.041Z,50.24
2023-06-27T02:46:20.130Z,50.39
2023-06-27T02:48:47.066Z,50.22
2023-06-27T02:51:14.025Z,50.18
2023-06-27T02:53:40.823Z,50.35
2023-06-27T02:56:08.998Z,50.20
2023-06-27T02:58:36.058Z,50.28
2023-06-27T03:01:07.429Z,50.32
2023-06-27T03:03:35.315Z,50.31
2023-06-27T03:06:09.978Z,50.28
2023-06-27T03:08:40.346Z,50.58
2023-06-27T03:11:07.150Z,50.24
2023-06-27T03:13:34.011Z,50.28
2023-06-27T03:16:02.015Z,50.41
2023-06-27T03:18:29.072Z,50.39
2023-06-27T03:20:55.942Z,50.57
2023-06-27T03:23:22.776Z,50.18
2023-06-27T03:25:49.777Z,50.42
2023-06-27T03:28:16.576Z,50.04
2023-06-27T03:30:44.746Z,50.29
2023-06-27T03:33:12.206Z,50.09
2023-06-27T03:35:39.970Z,50.23
2023-06-27T03:38:07.066Z,50.18
2023-06-27T03:40:34.031Z,50.04
2023-06-27T03:43:01.769Z,50.24
2023-06-27T03:45:29.404Z,50.35
2023-06-27T03:47:56.358Z,50.05
2023-06-27T03:50:23.570Z,50.29
2023-06-27T03:52:50.420Z,50.03
2023-06-27T03:55:17.341Z,50.26
2023-06-27T03:57:44.179Z,50.00
2023-06-27T04:00:12.097Z,49.93
2023-06-27T04:02:39.078Z,50.21
2023-06-27T04:05:06.689Z,50.32
2023-06-27T04:07:33.738Z,50.28
2023-06-27T04:10:00.686Z,50.27
2023-06-27T04:12:27.558Z,50.19
2023-06-27T04:14:54.420Z,50.35
2023-06-27T04:17:21.712Z,50.31
2023-06-27T04:19:48.597Z,50.65
2023-06-27T04:22:15.609Z,50.38
2023-06-27T04:24:42.412Z,50.56
2023-06-27T04:27:09.910Z,50.36
2023-06-27T04:29:37.872Z,50.42
2023-06-27T04:32:05.351Z,50.31
2023-06-27T04:34:32.237Z,50.29
2023-06-27T04:36:59.062Z,50.44
2023-06-27T04:39:25.873Z,50.38
2023-06-27T04:41:52.677Z,50.31
2023-06-27T04:44:22.032Z,50.38
2023-06-27T04:46:48.834Z,50.35
2023-06-27T04:49:15.837Z,50.89
2023-06-27T04:51:42.692Z,50.81
2023-06-27T04:54:09.518Z,50.44
2023-06-27T04:56:36.370Z,50.73
2023-06-27T04:59:03.233Z,50.85
2023-06-27T05:01:30.169Z,50.95
2023-06-27T05:04:05.257Z,50.94
2023-06-27T05:06:34.118Z,51.16
2023-06-27T05:09:02.450Z,50.94
2023-06-27T05:11:29.535Z,51.03
2023-06-27T05:13:56.396Z,51.14
2023-06-27T05:16:23.832Z,51.38
2023-06-27T05:18:50.698Z,51.24
2023-06-27T05:21:17.548Z,50.88
2023-06-27T05:23:44.613Z,51.40
2023-06-27T05:26:11.436Z,51.12
2023-06-27T05:28:38.384Z,51.25
2023-06-27T05:31:05.327Z,51.04
2023-06-27T05:33:32.255Z,51.06
2023-06-27T05:35:59.107Z,51.22
2023-06-27T05:38:25.968Z,50.99
2023-06-27T05:40:52.768Z,51.13
2023-06-27T05:43:21.786Z,51.01
2023-06-27T05:45:48.647Z,50.91
2023-06-27T05:48:15.519Z,50.52
2023-06-27T05:50:42.344Z,50.57
2023-06-27T05:53:09.204Z,50.56
2023-06-27T05:55:35.994Z,50.51
2023-06-27T05:58:02.806Z,50.45
2023-06-27T06:00:30.864Z,50.18
2023-06-27T06:02:57.857Z,50.40
2023-06-27T06:05:24.747Z,50.29
2023-06-27T06:07:52.046Z,50.25
2023-06-27T06:10:19.800Z,49.79
2023-06-27T06:12:46.630Z,50.12
2023-06-27T06:15:13.465Z,50.24
2023-06-27T06:17:40.812Z,50.10
2023-06-27T06:20:12.003Z,50.16
2023-06-27T06:22:39.365Z,49.52
2023-06-27T06:25:06.761Z,49.71
2023-06-27T06:27:33.728Z,49.64
2023-06-27T06:30:00.559Z,49.57
2023-06-27T06:32:27.490Z,49.51
2023-06-27T06:34:54.359Z,49.53
2023-06-27T06:37:22.994Z,49.26
2023-06-27T06:39:49.818Z,49.30
2023-06-27T06:42:16.602Z,49.01
2023-06-27T06:44:43.478Z,48.98
2023-06-27T06:47:10.418Z,49.14
2023-06-27T06:49:37.302Z,48.70
2023-06-27T06:52:04.384Z,48.92
2023-06-27T06:54:31.225Z,48.76
2023-06-27T06:56:58.061Z,48.85
2023-06-27T06:59:24.856Z,49.01
2023-06-27T07:01:52.252Z,48.90
2023-06-27T07:04:19.149Z,48.47
2023-06-27T07:06:46.018Z,48.63
2023-06-27T07:09:12.821Z,48.66
2023-06-27T07:11:39.692Z,48.59
2023-06-27T07:14:06.499Z,48.64
2023-06-27T07:16:33.347Z,48.30
2023-06-27T07:19:00.164Z,48.14
2023-06-27T07:21:27.114Z,48.29
2023-06-27T07:23:53.983Z,48.43
2023-06-27T07:26:21.760Z,47.92
2023-06-27T07:28:48.674Z,48.18
2023-06-27T07:31:15.614Z,48.05
2023-06-27T07:33:42.413Z,47.88
2023-06-27T07:36:09.334Z,46.84
2023-06-27T07:38:36.136Z,46.93
2023-06-27T07:41:03.663Z,46.17
2023-06-27T07:43:30.535Z,46.11
2023-06-27T07:45:57.437Z,46.30
2023-06-27T07:48:24.285Z,46.29
2023-06-27T07:50:51.091Z,46.13
2023-06-27T07:53:17.894Z,45.67
2023-06-27T07:55:44.710Z,45.19
2023-06-27T07:58:11.490Z,45.42
2023-06-27T08:00:40.174Z,45.47
2023-06-27T08:03:07.291Z,45.21
2023-06-27T08:05:36.310Z,45.07
2023-06-27T08:08:03.485Z,45.36
2023-06-27T08:10:30.648Z,44.77
2023-06-27T08:12:57.558Z,44.52
2023-06-27T08:15:24.415Z,44.28
2023-06-27T08:17:51.515Z,44.77
2023-06-27T08:20:19.108Z,44.28
2023-06-27T08:22:46.356Z,43.98
2023-06-27T08:25:13.250Z,44.37
2023-06-27T08:27:40.090Z,44.33
2023-06-27T08:30:08.382Z,44.52
2023-06-27T08:32:35.270Z,44.06
2023-06-27T08:35:05.276Z,44.20
2023-06-27T08:37:32.369Z,44.15
2023-06-27T08:39:59.221Z,43.65
2023-06-27T08:42:26.372Z,43.82
2023-06-27T08:44:53.752Z,44.24
2023-06-27T08:47:26.739Z,43.86
2023-06-27T08:50:03.117Z,43.70
2023-06-27T08:52:35.085Z,43.18
2023-06-27T08:55:05.881Z,43.17
2023-06-27T08:57:34.422Z,42.92
2023-06-27T09:00:13.135Z,42.26
2023-06-27T09:02:42.388Z,42.49
2023-06-27T09:05:10.069Z,42.46
2023-06-27T09:07:37.531Z,42.07
2023-06-27T09:10:04.789Z,41.84
2023-06-27T09:12:33.899Z,42.12
2023-06-27T09:15:00.730Z,41.88
2023-06-27T09:17:27.602Z,41.98
2023-06-27T09:19:54.484Z,41.90
2023-06-27T09:22:24.397Z,41.86
2023-06-27T09:24:51.280Z,41.37
2023-06-27T09:27:33.031Z,41.46
2023-06-27T09:30:04.435Z,41.61
2023-06-27T09:32:31.541Z,41.94
2023-06-27T09:35:03.738Z,41.54
2023-06-27T09:40:21.668Z,41.32
2023-06-27T09:42:56.732Z,41.08
2023-06-27T09:45:25.183Z,40.76
2023-06-27T09:47:52.452Z,40.66
2023-06-27T09:50:28.690Z,41.11
2023-06-27T09:53:00.611Z,40.97
2023-06-27T09:55:28.427Z,40.53
2023-06-27T09:57:55.647Z,40.68
2023-06-27T10:00:23.810Z,40.93
2023-06-27T10:02:52.068Z,40.79
2023-06-27T10:05:22.020Z,40.37
2023-06-27T10:07:51.338Z,40.25
2023-06-27T10:10:25.166Z,39.71
2023-06-27T10:12:53.540Z,39.52
2023-06-27T10:15:20.998Z,39.33
2023-06-27T10:17:48.488Z,39.27
2023-06-27T10:20:15.579Z,38.91
2023-06-27T10:22:45.691Z,39.21
2023-06-27T10:25:13.513Z,38.59
2023-06-27T10:27:43.601Z,38.97
2023-06-27T10:30:27.105Z,38.66
2023-06-27T10:33:21.951Z,39.04
2023-06-27T10:35:55.232Z,38.62
2023-06-27T10:38:22.768Z,38.64
2023-06-27T10:41:03.417Z,37.94
2023-06-27T10:43:37.562Z,37.99
2023-06-27T10:46:27.654Z,37.78
2023-06-27T10:49:07.869Z,38.90
2023-06-27T10:51:43.058Z,39.01
2023-06-27T10:54:10.012Z,38.59
2023-06-27T10:56:42.101Z,38.09
2023-06-27T10:59:27.852Z,38.19
2023-06-27T11:02:08.228Z,37.75
2023-06-27T11:04:44.419Z,37.32
2023-06-27T11:07:18.867Z,37.45
2023-06-27T11:09:57.465Z,37.98
2023-06-27T11:12:24.682Z,36.88
2023-06-27T11:14:55.217Z,37.51
2023-06-27T11:17:26.828Z,37.25
2023-06-27T11:19:57.621Z,36.69
2023-06-27T11:22:25.262Z,36.17
2023-06-27T11:24:52.088Z,36.44
2023-06-27T11:27:20.339Z,36.21
2023-06-27T11:29:47.159Z,36.21
2023-06-27T11:32:14.143Z,36.47
2023-06-27T11:34:44.087Z,36.44
2023-06-27T11:37:12.771Z,36.30
2023-06-27T11:39:39.806Z,36.52
2023-06-27T11:42:07.089Z,36.25
2023-06-27T11:44:35.993Z,36.48
2023-06-27T11:47:06.482Z,35.98
2023-06-27T11:49:34.294Z,35.82
2023-06-27T11:52:01.505Z,36.49
2023-06-27T11:54:28.361Z,36.61
2023-06-27T11:57:01.954Z,36.93
2023-06-27T11:59:33.282Z,37.34
2023-06-27T12:02:00.248Z,37.84
2023-06-27T12:04:27.248Z,38.42
2023-06-27T12:06:54.141Z,38.19
2023-06-27T12:09:28.172Z,38.55
2023-06-27T12:11:59.400Z,39.17
2023-06-27T12:14:27.956Z,39.35
2023-06-27T12:16:54.853Z,39.08
2023-06-27T12:19:23.905Z,38.56
2023-06-27T12:21:53.819Z,38.60
2023-06-27T12:24:21.447Z,37.69
2023-06-27T12:26:48.777Z,38.07
2023-06-27T12:29:17.622Z,37.85
2023-06-27T12:31:47.038Z,38.37
2023-06-27T12:34:14.369Z,38.62
2023-06-27T12:36:41.203Z,38.59
2023-06-27T12:39:08.162Z,38.48
2023-06-27T12:41:35.157Z,37.84
2023-06-27T12:44:02.097Z,37.30
2023-06-27T12:46:29.021Z,37.06
2023-06-27T12:48:55.834Z,37.03
2023-06-27T12:51:23.376Z,37.24
2023-06-27T12:53:50.257Z,36.37
2023-06-27T12:56:17.615Z,35.60
2023-06-27T12:58:47.443Z,35.57
2023-06-27T13:01:14.928Z,35.24
2023-06-27T13:03:41.861Z,35.75
2023-06-27T13:06:08.947Z,35.23
2023-06-27T13:08:35.766Z,35.80
2023-06-27T13:11:02.779Z,35.26
2023-06-27T13:13:34.667Z,35.10
2023-06-27T13:16:13.781Z,35.51
2023-06-27T13:18:41.749Z,35.48
2023-06-27T13:21:08.596Z,35.55
2023-06-27T13:23:35.907Z,35.54
2023-06-27T13:26:02.820Z,35.87
2023-06-27T13:28:29.774Z,35.80
2023-06-27T13:30:56.613Z,35.66
2023-06-27T13:33:24.957Z,35.46
2023-06-27T13:35:51.804Z,35.74
2023-06-27T13:38:18.974Z,35.79
2023-06-27T13:40:45.879Z,35.93
2023-06-27T13:43:12.707Z,35.45
2023-06-27T13:45:39.777Z,36.12
2023-06-27T13:48:06.705Z,35.79
2023-06-27T13:50:33.651Z,36.35
2023-06-27T13:53:00.641Z,36.53
2023-06-27T13:55:28.594Z,35.76
2023-06-27T13:57:55.492Z,34.36
2023-06-27T14:00:22.335Z,35.02
2023-06-27T14:02:49.764Z,35.17
2023-06-27T14:05:16.891Z,35.74
2023-06-27T14:07:43.775Z,35.26
2023-06-27T14:10:10.611Z,34.97
2023-06-27T14:12:38.726Z,34.27
2023-06-27T14:15:06.259Z,34.38
2023-06-27T14:17:33.593Z,34.79
2023-06-27T14:20:00.613Z,34.36
2023-06-27T14:22:27.784Z,34.67
2023-06-27T14:24:54.626Z,35.10
2023-06-27T14:27:21.710Z,35.47
2023-06-27T14:29:48.597Z,35.59
2023-06-27T14:32:15.453Z,35.65
2023-06-27T14:34:42.305Z,36.90
2023-06-27T14:37:10.006Z,37.88
2023-06-27T14:39:36.817Z,38.31
2023-06-27T14:42:04.305Z,39.39
2023-06-27T14:44:34.484Z,39.36
2023-06-27T14:47:01.613Z,39.29
2023-06-27T14:49:28.423Z,39.61
2023-06-27T14:51:55.267Z,39.16
2023-06-27T14:54:22.194Z,40.32
2023-06-27T14:56:50.067Z,39.91
2023-06-27T14:59:17.833Z,39.49
2023-06-27T15:01:44.781Z,40.00
2023-06-27T15:04:11.705Z,39.32
2023-06-27T15:06:38.633Z,39.53
2023-06-27T15:09:05.569Z,38.76
2023-06-27T15:11:32.449Z,39.07
2023-06-27T15:13:59.248Z,38.99
2023-06-27T15:16:26.107Z,37.93
2023-06-27T15:18:52.952Z,37.93
2023-06-27T15:21:19.768Z,37.61
2023-06-27T15:23:46.649Z,37.13
2023-06-27T15:26:13.470Z,36.92
2023-06-27T15:28:40.269Z,37.07
2023-06-27T15:31:09.294Z,36.94
2023-06-27T15:33:36.212Z,36.75
2023-06-27T15:36:03.524Z,36.51
2023-06-27T15:38:30.455Z,36.52
2023-06-27T15:40:57.347Z,36.24
2023-06-27T15:43:24.188Z,36.18
2023-06-27T15:45:51.042Z,36.05
2023-06-27T15:48:19.030Z,35.60
2023-06-27T15:50:45.830Z,36.22
2023-06-27T15:53:12.695Z,36.30
2023-06-27T15:55:39.501Z,36.23
2023-06-27T15:58:06.349Z,35.89
2023-06-27T16:00:33.225Z,35.89
2023-06-27T16:03:00.162Z,35.64
2023-06-27T16:05:27.174Z,36.26
2023-06-27T16:07:54.248Z,36.34
2023-06-27T16:10:23.829Z,36.45
2023-06-27T16:12:50.786Z,36.37
2023-06-27T16:15:17.673Z,36.50
2023-06-27T16:17:44.772Z,36.22
2023-06-27T16:20:11.988Z,36.57
2023-06-27T16:22:38.843Z,36.28
2023-06-27T16:25:06.148Z,36.12
2023-06-27T16:27:32.999Z,36.30
2023-06-27T16:29:59.823Z,36.75
2023-06-27T16:32:26.693Z,36.66
2023-06-27T16:34:53.564Z,37.02
2023-06-27T16:37:20.470Z,36.93
2023-06-27T16:39:47.332Z,36.64
2023-06-27T16:42:14.149Z,37.15
2023-06-27T16:44:40.981Z,36.54
2023-06-27T16:47:07.829Z,36.71
2023-06-27T16:49:34.651Z,36.39
2023-06-27T16:52:01.527Z,36.55
2023-06-27T16:54:28.355Z,36.55
2023-06-27T16:56:55.208Z,36.67
2023-06-27T16:59:22.080Z,36.85
2023-06-27T17:01:52.151Z,36.67
2023-06-27T17:04:21.700Z,36.40
2023-06-27T17:06:48.555Z,36.52
2023-06-27T17:09:15.452Z,36.67
2023-06-27T17:11:42.288Z,36.87
2023-06-27T17:14:09.127Z,36.98
2023-06-27T17:16:35.970Z,36.70
2023-06-27T17:19:02.838Z,36.80
2023-06-27T17:21:30.555Z,36.54
2023-06-27T17:23:57.432Z,35.95
2023-06-27T17:26:24.239Z,36.31
2023-06-27T17:28:51.449Z,36.06
2023-06-27T17:31:18.291Z,36.28
2023-06-27T17:33:45.103Z,36.46
2023-06-27T17:36:12.069Z,36.56
2023-06-27T17:38:38.879Z,37.21
2023-06-27T17:41:05.669Z,36.99
2023-06-27T17:43:32.522Z,36.93
2023-06-27T17:46:00.111Z,37.53
2023-06-27T17:48:26.987Z,37.55
2023-06-27T17:50:53.888Z,37.56
2023-06-27T17:53:21.058Z,37.38
2023-06-27T17:55:47.877Z,36.87
2023-06-27T17:58:14.749Z,37.05
2023-06-27T18:00:42.647Z,37.07
2023-06-27T18:03:10.054Z,36.85
2023-06-27T18:05:36.975Z,37.16
2023-06-27T18:08:03.982Z,37.27
2023-06-27T18:10:30.835Z,37.69
2023-06-27T18:12:57.740Z,37.69
2023-06-27T18:15:26.008Z,37.73
2023-06-27T18:17:52.939Z,37.92
2023-06-27T18:20:20.250Z,38.15
2023-06-27T18:22:47.048Z,38.35
2023-06-27T18:25:13.879Z,38.53
2023-06-27T18:27:43.449Z,38.86
2023-06-27T18:30:10.806Z,38.79
2023-06-27T18:32:37.720Z,38.85
2023-06-27T18:35:05.076Z,39.31
2023-06-27T18:37:31.980Z,39.44
2023-06-27T18:39:58.836Z,39.25
2023-06-27T18:42:25.667Z,39.38
2023-06-27T18:44:52.611Z,39.69
2023-06-27T18:47:19.441Z,39.70
2023-06-27T18:49:46.341Z,40.12
2023-06-27T18:52:13.266Z,39.85
2023-06-27T18:54:40.089Z,39.93
2023-06-27T18:57:07.980Z,40.25
2023-06-27T18:59:35.021Z,40.47
2023-06-27T19:02:03.339Z,40.54
2023-06-27T19:04:30.749Z,40.58
2023-06-27T19:06:57.765Z,40.32
2023-06-27T19:09:25.936Z,40.60
2023-06-27T19:11:52.831Z,41.09
2023-06-27T19:14:19.782Z,40.77
2023-06-27T19:16:46.667Z,41.31
2023-06-27T19:19:14.132Z,41.13
2023-06-27T19:21:41.632Z,41.56
2023-06-27T19:24:11.706Z,41.44
2023-06-27T19:26:38.682Z,41.59
2023-06-27T19:29:05.543Z,41.58
2023-06-27T19:31:32.456Z,41.76
2023-06-27T19:33:59.348Z,41.86
2023-06-27T19:36:26.177Z,41.98
2023-06-27T19:38:54.921Z,42.15
2023-06-27T19:41:23.046Z,42.09
2023-06-27T19:43:49.979Z,42.19
2023-06-27T19:46:16.845Z,42.40
2023-06-27T19:48:43.771Z,42.34
2023-06-27T19:51:11.747Z,42.13
2023-06-27T19:53:39.213Z,42.50
2023-06-27T19:56:07.993Z,42.47
2023-06-27T19:58:38.551Z,42.42
2023-06-27T20:01:09.175Z,42.73
2023-06-27T20:03:36.101Z,43.00
2023-06-27T20:06:03.032Z,42.87
2023-06-27T20:08:29.952Z,42.98
2023-06-27T20:10:56.855Z,42.67
2023-06-27T20:13:23.771Z,42.83
2023-06-27T20:15:50.915Z,42.38
2023-06-27T20:18:17.799Z,42.98
2023-06-27T20:20:44.841Z,42.66
2023-06-27T20:23:11.911Z,42.67
2023-06-27T20:25:38.862Z,42.09
2023-06-27T20:28:05.651Z,42.66
2023-06-27T20:30:32.562Z,42.10
2023-06-27T20:32:59.422Z,42.08
2023-06-27T20:35:26.287Z,42.14
2023-06-27T20:37:53.159Z,41.89
2023-06-27T20:40:20.048Z,41.79
2023-06-27T20:42:48.442Z,41.96
2023-06-27T20:45:16.011Z,41.85
2023-06-27T20:47:42.857Z,41.65
2023-06-27T20:50:10.657Z,41.63
2023-06-27T20:52:37.604Z,42.03
2023-06-27T20:55:04.780Z,41.49
2023-06-27T20:57:31.653Z,41.86
2023-06-27T20:59:58.573Z,41.95
2023-06-27T21:02:25.676Z,41.74
2023-06-27T21:04:54.173Z,41.85
2023-06-27T21:07:21.106Z,41.94
2023-06-27T21:09:47.995Z,42.03
2023-06-27T21:12:14.847Z,42.12
2023-06-27T21:14:41.715Z,41.65
2023-06-27T21:17:08.558Z,41.76
2023-06-27T21:19:35.453Z,41.93
2023-06-27T21:22:02.847Z,41.89
2023-06-27T21:24:29.774Z,41.97
2023-06-27T21:26:56.687Z,42.35
2023-06-27T21:29:25.291Z,42.31
2023-06-27T21:31:52.226Z,42.22
2023-06-27T21:34:19.669Z,41.97
2023-06-27T21:36:46.536Z,42.01
2023-06-27T21:39:13.384Z,42.11
2023-06-27T21:41:40.287Z,42.28
2023-06-27T21:44:07.142Z,42.25
2023-06-27T21:46:35.728Z,42.42
2023-06-27T21:49:02.644Z,42.45
2023-06-27T21:51:29.628Z,42.46
2023-06-27T21:53:56.490Z,42.71
2023-06-27T21:56:23.294Z,42.70
2023-06-27T21:58:50.180Z,42.70
2023-06-27T22:01:17.084Z,42.83
2023-06-27T22:03:44.186Z,42.86
2023-06-27T22:06:11.734Z,43.16
2023-06-27T22:08:38.685Z,43.06
2023-06-27T22:11:06.040Z,42.87
2023-06-27T22:13:33.076Z,43.06
2023-06-27T22:15:59.931Z,43.03
2023-06-27T22:18:26.874Z,43.31
2023-06-27T22:20:53.695Z,43.67
2023-06-27T22:23:20.520Z,43.26
2023-06-27T22:25:47.385Z,43.33
2023-06-27T22:28:14.294Z,43.21
2023-06-27T22:30:41.555Z,43.65
2023-06-27T22:33:08.754Z,43.72
2023-06-27T22:35:35.707Z,43.64
2023-06-27T22:38:02.524Z,43.64
2023-06-27T22:40:29.428Z,44.04
2023-06-27T22:42:56.278Z,43.92
2023-06-27T22:45:23.123Z,43.99
2023-06-27T22:47:50.039Z,43.96
2023-06-27T22:50:16.963Z,44.00
2023-06-27T22:52:43.772Z,44.23
2023-06-27T22:55:10.762Z,44.20
2023-06-27T22:57:37.620Z,44.17
2023-06-27T23:00:05.827Z,44.34
2023-06-27T23:02:32.741Z,44.57
2023-06-27T23:04:59.722Z,44.57
2023-06-27T23:07:26.679Z,44.41
2023-06-27T23:09:53.636Z,44.72
2023-06-27T23:12:20.448Z,44.53
2023-06-27T23:14:47.311Z,44.61
2023-06-27T23:17:14.140Z,44.77
2023-06-27T23:19:40.949Z,44.79
2023-06-27T23:22:13.564Z,44.76
2023-06-27T23:24:42.349Z,44.76
2023-06-27T23:27:09.267Z,45.01
2023-06-27T23:29:37.254Z,45.05
2023-06-27T23:32:05.989Z,45.14
2023-06-27T23:34:33.031Z,44.89
2023-06-27T23:36:59.908Z,45.12
2023-06-27T23:39:26.844Z,45.29
2023-06-27T23:41:53.776Z,45.10
2023-06-27T23:44:20.673Z,45.32
2023-06-27T23:46:47.609Z,45.04
2023-06-27T23:49:14.493Z,45.35
2023-06-27T23:51:41.369Z,45.38
2023-06-27T23:54:08.237Z,45.41
2023-06-27T23:56:35.111Z,45.52
2023-06-27T23:59:02.090Z,45.45
